Time;durP1;ratioP1;P1;durP2;ratioP2;P2;SDS_P1;SDS_P2;PMS_P1;PMS_P2;Temp;Humidity;BMP_temperature;BMP_pressure;BME280_temperature;BME280_humidity;BME280_pressure;Samples;Min_cycle;Max_cycle;Signal;HPM_P1;HPM_P2
2021/08/19 00:01:01;;;;;;;3.05;2.75;;;16.20;99.90;;;;;;5009635;28;20026;-74
2021/08/19 00:03:26;;;;;;;4.25;3.10;;;16.30;99.90;;;;;;4996321;28;20388;-75
2021/08/19 00:05:52;;;;;;;3.25;2.95;;;16.10;99.90;;;;;;5006638;28;20439;-74
2021/08/19 00:08:17;;;;;;;4.60;2.88;;;16.10;99.90;;;;;;5009477;28;20022;-74
2021/08/19 00:10:43;;;;;;;4.80;3.38;;;16.20;99.90;;;;;;5008915;28;20030;-75
2021/08/19 00:13:09;;;;;;;4.88;3.17;;;16.20;99.90;;;;;;5011860;28;20029;-74
2021/08/19 00:15:34;;;;;;;3.63;3.17;;;16.20;99.90;;;;;;5005736;28;20034;-74
2021/08/19 00:18:00;;;;;;;3.20;2.80;;;16.20;99.90;;;;;;5003029;28;20026;-75
2021/08/19 00:20:25;;;;;;;3.42;3.05;;;16.20;99.90;;;;;;5010222;28;20476;-75
2021/08/19 00:22:51;;;;;;;3.95;3.40;;;16.20;99.90;;;;;;5003929;28;20093;-74
2021/08/19 00:25:16;;;;;;;3.90;3.42;;;16.30;99.90;;;;;;5011221;28;20156;-75
2021/08/19 00:27:42;;;;;;;4.25;3.20;;;16.30;99.90;;;;;;5009513;28;20473;-74
2021/08/19 00:30:08;;;;;;;4.05;3.30;;;16.20;99.90;;;;;;5010914;28;20033;-74
2021/08/19 00:32:34;;;;;;;3.88;3.58;;;16.20;99.90;;;;;;5003392;28;20052;-75
2021/08/19 00:34:59;;;;;;;3.78;3.00;;;16.20;99.90;;;;;;5000274;28;20525;-73
2021/08/19 00:37:25;;;;;;;4.70;3.38;;;16.10;99.90;;;;;;5003298;28;20068;-73
2021/08/19 00:39:50;;;;;;;3.90;3.50;;;16.20;99.90;;;;;;5011920;28;20481;-73
2021/08/19 00:42:17;;;;;;;4.35;3.45;;;16.20;99.90;;;;;;5011680;28;20022;-74
2021/08/19 00:44:44;;;;;;;4.30;3.70;;;16.20;99.90;;;;;;5007444;28;20022;-74
2021/08/19 00:47:10;;;;;;;3.85;3.17;;;16.10;99.90;;;;;;4998880;28;20026;-75
2021/08/19 00:49:43;;;;;;;4.00;3.50;;;16.10;99.90;;;;;;5001935;28;20126;-74
2021/08/19 00:52:11;;;;;;;4.00;3.60;;;16.10;99.90;;;;;;5005471;28;20541;-75
2021/08/19 00:54:38;;;;;;;4.03;3.00;;;16.00;99.90;;;;;;5002593;28;20435;-75
2021/08/19 00:57:05;;;;;;;3.55;3.25;;;15.90;99.90;;;;;;4998575;28;20105;-75
2021/08/19 00:59:33;;;;;;;4.38;3.28;;;15.90;99.90;;;;;;5000783;28;20049;-75
2021/08/19 01:01:59;;;;;;;5.22;3.40;;;15.90;99.90;;;;;;5005391;28;20496;-75
2021/08/19 01:04:26;;;;;;;4.90;3.20;;;15.90;99.90;;;;;;5002982;28;20038;-74
2021/08/19 01:06:52;;;;;;;3.70;3.38;;;15.90;99.90;;;;;;4998521;28;20412;-74
2021/08/19 01:09:18;;;;;;;3.85;3.35;;;15.90;99.90;;;;;;5000549;28;20030;-73
2021/08/19 01:11:44;;;;;;;4.22;3.80;;;15.80;99.90;;;;;;4996783;28;20037;-73
2021/08/19 01:14:14;;;;;;;4.88;3.72;;;15.80;99.90;;;;;;5006812;28;20022;-73
2021/08/19 01:16:47;;;;;;;3.63;3.30;;;15.90;99.90;;;;;;4997359;28;20104;-73
2021/08/19 01:19:18;;;;;;;4.03;3.53;;;15.90;99.90;;;;;;4998792;28;20635;-74
2021/08/19 01:21:45;;;;;;;3.70;3.40;;;15.80;99.90;;;;;;4979812;28;20112;-73
2021/08/19 01:24:12;;;;;;;4.10;3.70;;;15.70;99.90;;;;;;4976586;28;20034;-75
2021/08/19 01:26:38;;;;;;;5.30;3.40;;;15.80;99.90;;;;;;5004724;28;20026;-74
2021/08/19 01:29:04;;;;;;;4.18;3.63;;;15.80;99.90;;;;;;4993726;28;20058;-74
2021/08/19 01:31:31;;;;;;;4.65;3.70;;;15.80;99.90;;;;;;4994380;28;20058;-73
2021/08/19 01:33:57;;;;;;;5.78;3.80;;;15.80;99.90;;;;;;5007182;28;20033;-75
2021/08/19 01:36:23;;;;;;;4.38;3.60;;;15.90;99.90;;;;;;5002175;28;20040;-75
2021/08/19 01:38:50;;;;;;;5.43;4.10;;;15.90;99.90;;;;;;5001998;28;20388;-73
2021/08/19 01:41:16;;;;;;;5.50;3.65;;;15.80;99.90;;;;;;5007645;28;20034;-74
2021/08/19 01:43:42;;;;;;;4.68;4.05;;;15.80;99.90;;;;;;4995397;28;20022;-74
2021/08/19 01:46:12;;;;;;;4.60;4.10;;;15.80;99.90;;;;;;4994251;28;20053;-73
2021/08/19 01:48:42;;;;;;;4.20;3.67;;;15.70;99.90;;;;;;5008777;28;20097;-74
2021/08/19 01:51:11;;;;;;;5.18;3.90;;;15.80;99.90;;;;;;4995603;28;20061;-73
2021/08/19 01:53:37;;;;;;;5.40;4.00;;;15.90;99.90;;;;;;5008140;28;20117;-74
2021/08/19 01:56:03;;;;;;;4.78;4.00;;;15.90;99.90;;;;;;5003313;28;20037;-74
2021/08/19 01:58:29;;;;;;;4.38;3.97;;;15.90;99.90;;;;;;4999953;28;20018;-73
2021/08/19 02:00:55;;;;;;;5.10;3.55;;;15.80;99.90;;;;;;5006144;28;20030;-74
2021/08/19 02:03:20;;;;;;;4.32;3.92;;;15.80;99.90;;;;;;5008384;28;20034;-73
2021/08/19 02:05:48;;;;;;;4.60;4.00;;;15.80;99.90;;;;;;5001707;28;20385;-72
2021/08/19 02:08:15;;;;;;;4.55;4.15;;;16.00;99.90;;;;;;4998991;28;20019;-73
2021/08/19 02:10:42;;;;;;;4.45;3.80;;;16.00;99.90;;;;;;4989990;28;20137;-73
2021/08/19 02:13:08;;;;;;;4.20;3.80;;;15.90;99.90;;;;;;5007566;28;20022;-73
2021/08/19 02:15:34;;;;;;;4.32;3.92;;;15.90;99.90;;;;;;4994598;28;20377;-72
2021/08/19 02:17:59;;;;;;;4.78;4.00;;;15.90;99.90;;;;;;5007832;28;20089;-73
2021/08/19 02:20:25;;;;;;;4.95;4.00;;;15.90;99.90;;;;;;5004208;28;20076;-74
2021/08/19 02:22:51;;;;;;;4.35;3.95;;;15.90;99.90;;;;;;5011648;28;20030;-74
2021/08/19 02:25:17;;;;;;;5.13;4.25;;;15.90;99.90;;;;;;5003502;28;20025;-74
2021/08/19 02:27:43;;;;;;;4.75;3.78;;;15.90;99.90;;;;;;4999816;28;20101;-74
2021/08/19 02:30:10;;;;;;;4.75;4.35;;;15.90;99.90;;;;;;5003875;28;20371;-74
2021/08/19 02:32:35;;;;;;;4.50;4.10;;;15.80;99.90;;;;;;5006370;28;20025;-73
2021/08/19 02:35:01;;;;;;;4.35;3.95;;;15.80;99.90;;;;;;4992928;28;20397;-73
2021/08/19 02:37:27;;;;;;;5.25;4.15;;;15.80;99.90;;;;;;5009734;28;20022;-73
2021/08/19 02:39:52;;;;;;;6.22;4.20;;;15.80;99.90;;;;;;5012243;28;20018;-73
2021/08/19 02:42:18;;;;;;;4.47;3.90;;;15.80;99.90;;;;;;5000472;28;20035;-73
2021/08/19 02:44:43;;;;;;;4.95;4.00;;;15.90;99.90;;;;;;5004821;28;20030;-74
2021/08/19 02:47:09;;;;;;;4.82;4.20;;;15.80;99.90;;;;;;5009297;28;20477;-73
2021/08/19 02:49:34;;;;;;;4.57;4.18;;;15.90;99.90;;;;;;5005136;28;20436;-73
2021/08/19 02:52:00;;;;;;;4.40;4.00;;;15.90;99.90;;;;;;5007474;28;20115;-73
2021/08/19 02:54:26;;;;;;;5.28;4.20;;;15.90;99.90;;;;;;5013491;28;20033;-74
2021/08/19 02:56:51;;;;;;;4.32;3.92;;;15.90;99.90;;;;;;4996223;28;20027;-73
2021/08/19 02:59:16;;;;;;;4.50;4.07;;;15.90;99.90;;;;;;4991159;28;20388;-74
2021/08/19 03:01:42;;;;;;;5.40;4.20;;;15.90;99.90;;;;;;5008370;28;20548;-73
2021/08/19 03:04:08;;;;;;;4.93;4.20;;;15.80;99.90;;;;;;5005911;28;20033;-74
2021/08/19 03:06:33;;;;;;;5.75;4.40;;;15.90;99.90;;;;;;5007915;28;20030;-71
2021/08/19 03:08:59;;;;;;;4.97;4.35;;;15.90;99.90;;;;;;5013326;28;20084;-73
2021/08/19 03:11:24;;;;;;;4.28;3.88;;;15.80;99.90;;;;;;4999064;28;20377;-74
2021/08/19 03:13:50;;;;;;;9.60;4.63;;;15.80;99.90;;;;;;4998845;28;20033;-74
2021/08/19 03:16:16;;;;;;;5.28;4.78;;;15.80;99.90;;;;;;4995337;28;20624;-74
2021/08/19 03:18:42;;;;;;;4.70;4.25;;;15.70;99.90;;;;;;5004700;28;20026;-74
2021/08/19 03:21:08;;;;;;;4.75;4.35;;;15.70;99.90;;;;;;5006574;28;20022;-74
2021/08/19 03:23:33;;;;;;;5.38;4.50;;;15.70;99.90;;;;;;5001964;28;20178;-74
2021/08/19 03:25:59;;;;;;;5.10;4.63;;;15.70;99.90;;;;;;4998117;28;20479;-73
2021/08/19 03:28:24;;;;;;;4.40;4.00;;;15.70;99.90;;;;;;5004443;28;20030;-74
2021/08/19 03:30:51;;;;;;;4.72;4.32;;;15.60;99.90;;;;;;5006574;28;20025;-74
2021/08/19 03:33:19;;;;;;;4.85;4.45;;;15.60;99.90;;;;;;5001098;28;20148;-74
2021/08/19 03:35:45;;;;;;;6.65;4.85;;;15.60;99.90;;;;;;4999486;28;20054;-74
2021/08/19 03:38:11;;;;;;;4.38;3.97;;;15.60;99.90;;;;;;5003357;28;20029;-74
2021/08/19 03:40:37;;;;;;;4.82;3.80;;;15.60;99.90;;;;;;5006381;28;20152;-74
2021/08/19 03:43:03;;;;;;;4.95;4.50;;;15.60;99.90;;;;;;5004599;28;20763;-76
2021/08/19 03:45:29;;;;;;;5.07;4.07;;;15.60;99.90;;;;;;4992948;28;20034;-74
2021/08/19 03:47:55;;;;;;;5.28;4.88;;;15.60;99.90;;;;;;5006673;28;20049;-75
2021/08/19 03:50:21;;;;;;;4.70;4.20;;;15.60;99.90;;;;;;4999255;28;20038;-74
2021/08/19 03:52:46;;;;;;;5.22;4.72;;;15.50;99.90;;;;;;5004591;28;20034;-74
2021/08/19 03:55:12;;;;;;;4.90;4.40;;;15.60;99.90;;;;;;5005794;28;20033;-75
2021/08/19 03:57:38;;;;;;;7.72;4.38;;;15.70;99.90;;;;;;4999232;28;20032;-74
2021/08/19 04:00:05;;;;;;;5.50;4.70;;;15.60;99.90;;;;;;5011672;28;20017;-76
2021/08/19 04:02:30;;;;;;;5.07;4.68;;;15.60;99.90;;;;;;5000136;28;20477;-74
2021/08/19 04:04:56;;;;;;;4.85;4.35;;;15.70;99.90;;;;;;4997893;28;20066;-74
2021/08/19 04:07:21;;;;;;;4.95;4.53;;;15.70;99.90;;;;;;5004766;28;20026;-75
2021/08/19 04:09:47;;;;;;;5.22;4.72;;;15.60;99.90;;;;;;5006803;28;20069;-74
2021/08/19 04:12:12;;;;;;;7.18;4.65;;;15.60;99.90;;;;;;5004771;28;20030;-74
2021/08/19 04:14:38;;;;;;;5.20;4.70;;;15.60;99.90;;;;;;4997608;28;20477;-76
2021/08/19 04:17:03;;;;;;;5.35;4.60;;;15.60;99.90;;;;;;5001183;28;20026;-74
2021/08/19 04:19:29;;;;;;;4.82;4.32;;;15.40;99.90;;;;;;4997171;28;20029;-74
2021/08/19 04:21:54;;;;;;;6.82;4.65;;;15.60;99.90;;;;;;5000772;28;20396;-73
2021/08/19 04:24:20;;;;;;;5.78;4.55;;;15.60;99.90;;;;;;4998793;28;20038;-75
2021/08/19 04:26:46;;;;;;;5.53;5.03;;;15.50;99.90;;;;;;5003796;28;20033;-75
2021/08/19 04:29:11;;;;;;;6.00;5.38;;;15.60;99.90;;;;;;5004439;28;20128;-74
2021/08/19 04:31:37;;;;;;;5.40;4.90;;;15.60;99.90;;;;;;5000471;28;20057;-74
2021/08/19 04:34:03;;;;;;;5.20;4.70;;;15.50;99.90;;;;;;4995959;28;20023;-74
2021/08/19 04:36:30;;;;;;;5.18;4.68;;;15.50;99.90;;;;;;4992252;28;20029;-75
2021/08/19 04:38:55;;;;;;;5.32;4.75;;;15.50;99.90;;;;;;4992176;28;20022;-73
2021/08/19 04:41:21;;;;;;;5.32;4.82;;;15.50;99.90;;;;;;4993385;28;20019;-72
2021/08/19 04:43:47;;;;;;;5.53;5.03;;;15.50;99.90;;;;;;5005464;28;20030;-74
2021/08/19 04:46:12;;;;;;;6.68;5.00;;;15.60;99.90;;;;;;5000186;28;20452;-73
2021/08/19 04:48:38;;;;;;;5.30;4.90;;;15.50;99.90;;;;;;4997326;28;20034;-73
2021/08/19 04:51:04;;;;;;;5.50;5.00;;;15.50;99.90;;;;;;4992271;28;20386;-73
2021/08/19 04:53:29;;;;;;;5.65;5.20;;;15.60;99.90;;;;;;5005395;28;20030;-73
2021/08/19 04:55:55;;;;;;;6.18;5.57;;;15.50;99.90;;;;;;4992230;28;20037;-75
2021/08/19 04:58:20;;;;;;;5.90;5.40;;;15.50;99.90;;;;;;5004135;28;20117;-75
2021/08/19 05:00:46;;;;;;;5.80;5.30;;;15.50;99.90;;;;;;4999177;28;20049;-75
2021/08/19 05:03:11;;;;;;;5.93;5.43;;;15.50;99.90;;;;;;4998736;28;20099;-75
2021/08/19 05:05:37;;;;;;;5.82;5.22;;;15.50;99.90;;;;;;4995746;28;20048;-75
2021/08/19 05:08:02;;;;;;;6.30;5.75;;;15.50;99.90;;;;;;4995953;28;20108;-75
2021/08/19 05:10:28;;;;;;;6.20;5.60;;;15.50;99.90;;;;;;5002696;28;20029;-75
2021/08/19 05:12:53;;;;;;;8.55;6.30;;;15.50;99.90;;;;;;5002258;28;20018;-75
2021/08/19 05:15:20;;;;;;;6.72;5.80;;;15.60;99.90;;;;;;4993811;28;20046;-75
2021/08/19 05:17:46;;;;;;;6.93;6.20;;;15.50;99.90;;;;;;5003692;28;20026;-75
2021/08/19 05:20:12;;;;;;;6.45;5.78;;;15.50;99.90;;;;;;5003389;28;20030;-75
2021/08/19 05:22:38;;;;;;;8.02;6.15;;;15.50;99.90;;;;;;5001757;28;20069;-75
2021/08/19 05:25:04;;;;;;;6.88;6.25;;;15.50;99.90;;;;;;5007454;28;20057;-75
2021/08/19 05:27:30;;;;;;;7.07;6.30;;;15.60;99.90;;;;;;4995560;28;20034;-75
2021/08/19 05:29:55;;;;;;;8.70;6.30;;;15.60;99.90;;;;;;5003287;28;20080;-75
2021/08/19 05:32:21;;;;;;;7.30;6.60;;;15.60;99.90;;;;;;5001900;28;20030;-73
2021/08/19 05:34:47;;;;;;;7.72;6.80;;;15.60;99.90;;;;;;5007071;28;20030;-74
2021/08/19 05:37:12;;;;;;;7.72;6.95;;;15.60;99.90;;;;;;5007200;28;20028;-72
2021/08/19 05:39:38;;;;;;;7.13;6.47;;;15.60;99.90;;;;;;5001578;28;20451;-73
2021/08/19 05:42:03;;;;;;;7.28;6.57;;;15.60;99.90;;;;;;5001641;28;20429;-74
2021/08/19 05:44:29;;;;;;;8.77;6.65;;;15.70;99.90;;;;;;5006108;28;20125;-74
2021/08/19 05:46:54;;;;;;;7.80;7.10;;;15.60;99.90;;;;;;4996423;28;20037;-75
2021/08/19 05:49:20;;;;;;;7.28;6.68;;;15.60;99.90;;;;;;5006266;28;20050;-75
2021/08/19 05:51:45;;;;;;;7.60;6.50;;;15.70;99.90;;;;;;5008127;28;20495;-75
2021/08/19 05:54:11;;;;;;;8.20;6.85;;;15.70;99.90;;;;;;5002274;28;20115;-75
2021/08/19 05:56:36;;;;;;;7.38;6.68;;;15.70;99.90;;;;;;5001325;28;20054;-75
2021/08/19 05:59:02;;;;;;;8.30;7.15;;;15.70;99.90;;;;;;5007682;28;20408;-75
2021/08/19 06:01:27;;;;;;;7.65;6.95;;;15.80;99.90;;;;;;5006706;28;20108;-75
2021/08/19 06:03:53;;;;;;;8.25;7.45;;;15.80;99.90;;;;;;5001779;28;20040;-74
2021/08/19 06:06:19;;;;;;;7.28;6.68;;;15.80;99.90;;;;;;5001135;28;20030;-75
2021/08/19 06:08:44;;;;;;;7.97;7.18;;;15.80;99.90;;;;;;5007696;28;20023;-75
2021/08/19 06:11:10;;;;;;;7.78;6.97;;;15.90;99.90;;;;;;4994771;28;20054;-75
2021/08/19 06:13:35;;;;;;;7.55;6.85;;;15.90;99.90;;;;;;5001115;28;20022;-75
2021/08/19 06:16:01;;;;;;;8.00;7.22;;;15.90;99.90;;;;;;5012783;28;20025;-74
2021/08/19 06:18:26;;;;;;;7.78;6.63;;;16.00;99.90;;;;;;5001561;28;20077;-73
2021/08/19 06:20:52;;;;;;;8.35;7.57;;;16.10;99.90;;;;;;5000993;28;20187;-75
2021/08/19 06:23:17;;;;;;;7.95;7.03;;;16.00;99.90;;;;;;5007227;28;20038;-75
2021/08/19 06:25:44;;;;;;;8.27;7.47;;;16.10;99.90;;;;;;5006061;28;20112;-74
2021/08/19 06:28:10;;;;;;;7.93;7.20;;;16.10;99.90;;;;;;5000031;28;20022;-74
2021/08/19 06:30:36;;;;;;;10.00;8.23;;;16.10;99.90;;;;;;5000739;28;20041;-74
2021/08/19 06:33:03;;;;;;;8.20;7.40;;;16.20;99.90;;;;;;5009714;28;20022;-73
2021/08/19 06:35:29;;;;;;;8.43;7.05;;;16.20;99.90;;;;;;5000356;28;20041;-74
2021/08/19 06:37:55;;;;;;;8.23;7.45;;;16.30;99.90;;;;;;5007036;28;20031;-73
2021/08/19 06:40:21;;;;;;;7.85;7.15;;;16.30;99.90;;;;;;5007426;28;20101;-74
2021/08/19 06:42:47;;;;;;;8.00;7.20;;;16.40;99.90;;;;;;5000969;28;20149;-74
2021/08/19 06:45:13;;;;;;;7.53;6.78;;;16.50;99.90;;;;;;5000494;28;20089;-74
2021/08/19 06:47:38;;;;;;;8.80;7.78;;;16.50;99.90;;;;;;5006923;28;20022;-74
2021/08/19 06:50:04;;;;;;;8.20;7.40;;;16.40;99.90;;;;;;5006734;28;20034;-74
2021/08/19 06:52:30;;;;;;;7.57;6.75;;;16.40;99.90;;;;;;4999467;28;20029;-73
2021/08/19 06:54:58;;;;;;;7.55;6.85;;;16.50;99.90;;;;;;4998735;28;20481;-74
2021/08/19 06:57:24;;;;;;;7.90;7.10;;;16.60;99.90;;;;;;5005476;28;20105;-75
2021/08/19 06:59:49;;;;;;;8.38;7.40;;;16.60;99.90;;;;;;5006820;28;20105;-74
2021/08/19 07:02:15;;;;;;;6.93;6.22;;;16.60;99.90;;;;;;5000434;28;20033;-73
2021/08/19 07:04:41;;;;;;;8.07;7.28;;;16.70;99.90;;;;;;5000121;28;20105;-74
2021/08/19 07:07:06;;;;;;;7.30;6.60;;;16.70;99.90;;;;;;5013254;28;20036;-74
2021/08/19 07:09:32;;;;;;;7.68;6.97;;;16.70;99.90;;;;;;4998495;28;20035;-73
2021/08/19 07:11:58;;;;;;;7.43;6.57;;;16.80;99.90;;;;;;5006157;28;20034;-74
2021/08/19 07:14:23;;;;;;;8.32;7.40;;;16.80;99.90;;;;;;5000489;28;20493;-74
2021/08/19 07:16:49;;;;;;;7.68;6.97;;;16.70;99.90;;;;;;5006901;28;20441;-74
2021/08/19 07:19:14;;;;;;;6.93;6.10;;;16.80;99.90;;;;;;5005019;28;20026;-74
2021/08/19 07:21:40;;;;;;;7.97;6.32;;;16.90;99.90;;;;;;4999739;28;20068;-74
2021/08/19 07:24:05;;;;;;;6.72;6.15;;;17.10;99.90;;;;;;5009954;28;20036;-74
2021/08/19 07:26:31;;;;;;;6.55;5.95;;;17.20;99.90;;;;;;5004642;28;20026;-76
2021/08/19 07:28:57;;;;;;;7.40;5.68;;;17.40;99.90;;;;;;4997760;28;20022;-74
2021/08/19 07:31:24;;;;;;;5.32;4.75;;;17.60;99.90;;;;;;4993015;28;20624;-75
2021/08/19 07:33:50;;;;;;;6.35;4.45;;;17.50;99.90;;;;;;4993277;28;20057;-74
2021/08/19 07:36:16;;;;;;;5.65;4.70;;;17.60;99.90;;;;;;5006081;28;20033;-74
2021/08/19 07:38:42;;;;;;;4.85;4.45;;;17.60;99.90;;;;;;5006064;28;20030;-75
2021/08/19 07:41:08;;;;;;;4.78;4.22;;;17.80;99.90;;;;;;4993157;28;20026;-75
2021/08/19 07:43:34;;;;;;;4.22;3.83;;;17.80;99.90;;;;;;5004708;28;20054;-75
2021/08/19 07:46:00;;;;;;;4.22;3.83;;;17.70;99.90;;;;;;4997681;28;20060;-74
2021/08/19 07:48:26;;;;;;;5.40;3.83;;;17.50;99.90;;;;;;4993556;28;20030;-74
2021/08/19 07:50:52;;;;;;;4.30;3.90;;;17.60;99.90;;;;;;5005831;28;20033;-74
2021/08/19 07:53:17;;;;;;;4.97;3.83;;;17.50;99.90;;;;;;4997463;28;20022;-74
2021/08/19 07:55:43;;;;;;;5.47;3.90;;;17.50;99.90;;;;;;5005978;28;20027;-74
2021/08/19 07:58:08;;;;;;;4.80;4.30;;;17.50;99.90;;;;;;5005519;28;20538;-74
2021/08/19 08:00:35;;;;;;;4.60;4.20;;;17.20;99.90;;;;;;4999355;28;20477;-74
2021/08/19 08:03:01;;;;;;;6.65;4.88;;;17.00;99.90;;;;;;5012252;28;20053;-74
2021/08/19 08:05:29;;;;;;;4.10;3.70;;;16.70;99.90;;;;;;4999033;28;20064;-74
2021/08/19 08:08:02;;;;;;;5.53;4.15;;;16.70;99.90;;;;;;4999235;28;20030;-74
2021/08/19 08:10:30;;;;;;;3.97;3.67;;;16.70;99.90;;;;;;4973497;28;20049;-74
2021/08/19 08:12:56;;;;;;;3.70;3.40;;;16.60;99.90;;;;;;5002699;28;20030;-74
2021/08/19 08:15:21;;;;;;;3.35;3.05;;;16.60;99.90;;;;;;4996430;28;20026;-74
2021/08/19 08:17:47;;;;;;;3.97;3.60;;;16.50;99.90;;;;;;5005820;28;20018;-74
2021/08/19 08:20:13;;;;;;;4.72;3.65;;;16.50;99.90;;;;;;4995490;28;20161;-73
2021/08/19 08:22:43;;;;;;;4.65;3.53;;;16.40;99.90;;;;;;5005736;28;20092;-74
2021/08/19 08:25:09;;;;;;;3.95;3.55;;;16.30;99.90;;;;;;4999228;28;20030;-73
2021/08/19 08:27:34;;;;;;;5.18;3.90;;;16.20;99.90;;;;;;4998835;28;20041;-73
2021/08/19 08:30:00;;;;;;;4.68;4.28;;;16.30;99.90;;;;;;5003830;28;20081;-73
2021/08/19 08:32:26;;;;;;;4.60;4.20;;;16.20;99.90;;;;;;5003039;28;20128;-73
2021/08/19 08:34:52;;;;;;;5.47;4.57;;;16.10;99.90;;;;;;4992862;28;20026;-73
2021/08/19 08:37:17;;;;;;;7.18;5.25;;;16.00;99.90;;;;;;4991029;28;20038;-74
2021/08/19 08:39:44;;;;;;;6.70;5.97;;;16.00;99.90;;;;;;5003397;28;20026;-73
2021/08/19 08:42:11;;;;;;;6.63;5.15;;;16.00;99.90;;;;;;5001251;28;20081;-73
2021/08/19 08:44:38;;;;;;;6.30;5.35;;;16.00;99.90;;;;;;5004804;28;20083;-73
2021/08/19 08:47:04;;;;;;;6.90;5.60;;;16.10;99.90;;;;;;5002748;28;20030;-74
2021/08/19 08:49:30;;;;;;;6.22;5.63;;;16.10;99.90;;;;;;5004210;28;20034;-73
2021/08/19 08:51:57;;;;;;;6.30;5.70;;;16.20;99.90;;;;;;5011368;28;20407;-73
2021/08/19 08:54:29;;;;;;;7.40;6.03;;;16.40;99.90;;;;;;4996235;28;20026;-73
2021/08/19 08:56:58;;;;;;;6.25;5.65;;;16.60;99.90;;;;;;4999004;28;20045;-73
2021/08/19 08:59:25;;;;;;;6.20;5.60;;;16.90;99.90;;;;;;5005857;28;20062;-73
2021/08/19 09:01:53;;;;;;;6.65;5.28;;;17.20;99.90;;;;;;5007934;28;20022;-74
2021/08/19 09:04:19;;;;;;;5.25;4.75;;;17.40;99.90;;;;;;5004530;28;20034;-73
2021/08/19 09:06:45;;;;;;;5.80;5.15;;;17.50;99.90;;;;;;5002343;28;20036;-74
2021/08/19 09:09:20;;;;;;;5.30;4.80;;;17.70;99.90;;;;;;5005954;28;20392;-74
2021/08/19 09:11:51;;;;;;;5.40;4.70;;;17.80;99.90;;;;;;5008876;28;20026;-74
2021/08/19 09:14:28;;;;;;;5.47;4.97;;;17.80;99.90;;;;;;5007414;28;20038;-75
2021/08/19 09:16:54;;;;;;;5.28;4.78;;;17.90;99.90;;;;;;5015436;28;20432;-73
2021/08/19 09:19:22;;;;;;;5.35;4.53;;;17.80;99.90;;;;;;5002163;28;20393;-74
2021/08/19 09:21:50;;;;;;;5.97;5.20;;;18.00;99.90;;;;;;4991621;28;20030;-73
2021/08/19 09:24:30;;;;;;;6.07;4.65;;;17.90;99.90;;;;;;5002918;28;20172;-74
2021/08/19 09:27:16;;;;;;;4.38;4.00;;;17.90;99.90;;;;;;4997268;28;20022;-74
2021/08/19 09:29:45;;;;;;;5.63;4.35;;;18.10;99.90;;;;;;5008548;28;20563;-74
2021/08/19 09:32:15;;;;;;;4.63;4.22;;;17.70;99.90;;;;;;4997953;28;20157;-74
2021/08/19 09:34:43;;;;;;;4.70;4.22;;;17.60;99.90;;;;;;4993956;28;20072;-74
2021/08/19 09:37:10;;;;;;;4.43;4.03;;;17.60;99.90;;;;;;5008259;28;20017;-73
2021/08/19 09:39:43;;;;;;;4.82;4.30;;;17.50;99.90;;;;;;4975997;28;20023;-73
2021/08/19 09:42:09;;;;;;;4.00;3.60;;;17.40;99.90;;;;;;5002490;28;20022;-74
2021/08/19 09:44:38;;;;;;;4.25;3.60;;;17.40;99.90;;;;;;5007260;28;20033;-73
2021/08/19 09:47:06;;;;;;;3.92;3.60;;;17.70;99.90;;;;;;5000764;28;20022;-73
2021/08/19 09:49:35;;;;;;;4.95;4.00;;;17.70;99.90;;;;;;4994921;28;20018;-74
2021/08/19 09:52:05;;;;;;;4.93;3.63;;;17.90;99.90;;;;;;4996782;28;20035;-74
2021/08/19 09:54:32;;;;;;;4.65;3.70;;;17.90;99.90;;;;;;5005645;28;20018;-74
2021/08/19 09:56:58;;;;;;;4.82;4.30;;;17.90;99.90;;;;;;5008243;28;20366;-74
2021/08/19 09:59:26;;;;;;;4.13;3.72;;;17.90;99.90;;;;;;4995088;28;20029;-74
2021/08/19 10:01:54;;;;;;;4.63;4.22;;;18.10;99.90;;;;;;4994841;28;20057;-74
2021/08/19 10:04:24;;;;;;;5.40;4.05;;;18.30;99.90;;;;;;5003084;28;20057;-73
2021/08/19 10:06:50;;;;;;;5.65;4.28;;;18.20;99.90;;;;;;5006122;28;20150;-74
2021/08/19 10:09:15;;;;;;;6.53;3.60;;;18.50;99.90;;;;;;5004729;28;20578;-73
2021/08/19 10:11:43;;;;;;;4.43;4.03;;;18.60;99.90;;;;;;5008731;28;20112;-74
2021/08/19 10:14:16;;;;;;;4.70;4.03;;;18.50;99.90;;;;;;5010176;28;20076;-73
2021/08/19 10:16:43;;;;;;;4.70;4.18;;;18.40;99.90;;;;;;5002319;28;20022;-74
2021/08/19 10:19:22;;;;;;;5.57;4.32;;;18.50;99.90;;;;;;5007541;28;20018;-73
2021/08/19 10:21:51;;;;;;;5.10;3.45;;;18.50;99.90;;;;;;4988173;28;20080;-74
2021/08/19 10:24:23;;;;;;;5.18;4.00;;;18.70;99.90;;;;;;5001543;28;20061;-73
2021/08/19 10:27:18;;;;;;;4.88;4.03;;;18.80;99.90;;;;;;5000782;28;20026;-73
2021/08/19 10:30:20;;;;;;;5.63;3.67;;;18.70;99.90;;;;;;4992975;28;20521;-74
2021/08/19 10:32:55;;;;;;;4.57;4.18;;;18.70;99.90;;;;;;4992078;28;20405;-73
2021/08/19 10:35:28;;;;;;;4.40;4.00;;;18.50;99.90;;;;;;5008612;28;20026;-73
2021/08/19 10:37:53;;;;;;;5.88;3.78;;;18.50;99.90;;;;;;5002257;28;20106;-74
2021/08/19 10:40:19;;;;;;;4.40;3.33;;;18.60;99.90;;;;;;5006417;28;20073;-74
2021/08/19 10:42:49;;;;;;;4.35;3.95;;;18.70;99.90;;;;;;5007726;28;20018;-75
2021/08/19 10:45:26;;;;;;;5.22;3.92;;;18.80;99.90;;;;;;5003277;28;20536;-74
2021/08/19 10:47:55;;;;;;;4.07;3.67;;;18.80;99.90;;;;;;5007394;28;20491;-73
2021/08/19 10:50:24;;;;;;;4.22;3.72;;;18.70;99.90;;;;;;5001345;28;20130;-73
2021/08/19 10:52:49;;;;;;;5.47;3.50;;;19.00;99.90;;;;;;5005502;28;20160;-73
2021/08/19 10:55:16;;;;;;;4.30;3.25;;;19.00;99.90;;;;;;5003541;28;20105;-73
2021/08/19 10:57:46;;;;;;;4.18;3.60;;;19.10;99.90;;;;;;4999626;28;20029;-73
2021/08/19 11:00:12;;;;;;;3.90;3.50;;;19.10;99.90;;;;;;4993516;28;20093;-73
2021/08/19 11:02:41;;;;;;;5.22;3.85;;;19.00;99.90;;;;;;4998415;28;20022;-73
2021/08/19 11:05:09;;;;;;;5.20;3.95;;;19.10;99.90;;;;;;4999433;28;20023;-73
2021/08/19 11:07:53;;;;;;;3.88;3.50;;;19.00;99.90;;;;;;4999348;28;20097;-74
2021/08/19 11:10:31;;;;;;;4.10;3.72;;;19.00;99.90;;;;;;5000637;28;20025;-74
2021/08/19 11:13:03;;;;;;;3.40;3.10;;;19.00;99.90;;;;;;4993606;28;20065;-73
2021/08/19 11:15:29;;;;;;;3.35;3.05;;;19.10;99.90;;;;;;4993419;28;20034;-73
2021/08/19 11:17:57;;;;;;;4.20;3.40;;;19.20;99.90;;;;;;4993462;28;20022;-73
2021/08/19 11:20:29;;;;;;;4.05;3.45;;;19.20;99.90;;;;;;4993453;28;20087;-73
2021/08/19 11:23:02;;;;;;;3.65;3.10;;;19.30;99.90;;;;;;4996507;28;20472;-74
2021/08/19 11:25:28;;;;;;;3.72;3.28;;;19.40;99.90;;;;;;5012802;28;20033;-73
2021/08/19 11:27:57;;;;;;;3.38;2.90;;;19.60;99.90;;;;;;4999638;28;20025;-73
2021/08/19 11:30:33;;;;;;;3.08;2.80;;;19.80;99.90;;;;;;4997610;28;20026;-73
2021/08/19 11:33:23;;;;;;;6.18;3.22;;;19.70;99.90;;;;;;4993132;28;20019;-73
2021/08/19 11:35:51;;;;;;;3.40;3.10;;;19.70;99.90;;;;;;4991625;28;20033;-73
2021/08/19 11:38:22;;;;;;;3.50;3.08;;;19.70;99.90;;;;;;4993067;28;20398;-73
2021/08/19 11:40:50;;;;;;;3.53;2.97;;;19.70;99.90;;;;;;4991797;28;20509;-73
2021/08/19 11:43:28;;;;;;;5.90;3.30;;;19.60;99.90;;;;;;4992951;28;20073;-73
2021/08/19 11:46:04;;;;;;;4.13;3.55;;;19.40;99.90;;;;;;4997862;28;20392;-73
2021/08/19 11:48:30;;;;;;;3.22;2.78;;;19.30;99.90;;;;;;5000116;28;20069;-73
2021/08/19 11:50:58;;;;;;;3.88;3.40;;;19.40;99.90;;;;;;4995369;28;20567;-73
2021/08/19 11:53:24;;;;;;;3.83;3.42;;;19.50;99.90;;;;;;4993063;28;20023;-73
2021/08/19 11:55:51;;;;;;;5.07;3.55;;;19.50;99.90;;;;;;4999634;28;20026;-73
2021/08/19 11:58:25;;;;;;;4.63;3.15;;;19.60;99.90;;;;;;5001977;28;20088;-73
2021/08/19 12:01:08;;;;;;;3.97;3.58;;;19.80;99.90;;;;;;4992760;28;20015;-73
2021/08/19 12:03:36;;;;;;;4.72;3.28;;;19.80;99.90;;;;;;4994442;28;20025;-73
2021/08/19 12:06:17;;;;;;;4.10;3.22;;;19.80;99.90;;;;;;5012112;28;20026;-73
2021/08/19 12:08:57;;;;;;;4.38;3.50;;;19.80;99.90;;;;;;4992793;28;20018;-73
2021/08/19 12:11:28;;;;;;;3.55;2.90;;;19.70;99.90;;;;;;5005474;28;20033;-73
2021/08/19 12:13:55;;;;;;;2.90;2.70;;;19.80;99.90;;;;;;4991578;28;20026;-73
2021/08/19 12:16:23;;;;;;;4.05;2.80;;;20.00;99.90;;;;;;4991131;28;20153;-73
2021/08/19 12:19:07;;;;;;;3.55;2.70;;;20.10;99.90;;;;;;4992517;28;20077;-73
2021/08/19 12:21:33;;;;;;;2.90;2.70;;;20.30;99.90;;;;;;5010820;28;20392;-73
2021/08/19 12:24:15;;;;;;;3.03;2.70;;;20.50;99.90;;;;;;5000379;28;20118;-73
2021/08/19 12:26:40;;;;;;;3.72;2.75;;;20.60;99.90;;;;;;4998591;28;20058;-73
2021/08/19 12:29:06;;;;;;;4.75;2.65;;;20.10;99.90;;;;;;5010658;28;20119;-73
2021/08/19 12:31:50;;;;;;;2.83;2.30;;;20.00;99.90;;;;;;5003181;28;20404;-73
2021/08/19 12:34:17;;;;;;;3.38;2.60;;;20.00;99.90;;;;;;4991956;28;20030;-73
2021/08/19 12:36:43;;;;;;;3.75;2.70;;;19.80;99.90;;;;;;5002258;28;20022;-73
2021/08/19 12:39:27;;;;;;;3.58;2.78;;;19.80;99.90;;;;;;4995416;28;20018;-73
2021/08/19 12:42:09;;;;;;;3.47;2.53;;;19.90;99.90;;;;;;4993171;28;20019;-73
2021/08/19 12:44:36;;;;;;;3.05;2.67;;;19.90;99.90;;;;;;4992317;28;20110;-73
2021/08/19 12:47:03;;;;;;;4.10;2.90;;;19.70;99.90;;;;;;4992330;28;20030;-73
2021/08/19 12:49:38;;;;;;;3.00;2.65;;;19.80;99.90;;;;;;5000374;28;20073;-73